Strona główna
METAR-TAF:

METAR-TAF

Lotnisko :

Port lotniczy Krsko-Cerklje

Cerklje ob Krki, Słowenia

Szerokość geograficzna: 45-53-59N, Długość geograficzna: 15-30-55E, wysokość: 157 m

Aktualna obserwacja pogody

Raport powstał 39 minut temu, godzina 19:00 UTC
Cisza
Temperatura 14°C
Wilgotność 72%
Ciśnienie 1018 hPa
Widzialność 10 km lub więcej

METAR: LJCE 301900Z AUTO 00000KT 9999 NSC 14/09 Q1018

czas: 21:39 (19:39 UTC)

Prognoza

Raport powstał 2 godziny i 39 minut temu, godzina 17:00 UTC
Prognoza ważna od 30 godzina 18 UTC do 31 godzina 03 UTC
Wiatr 2 kt z kierunków zmiennych
Widzialność 10 km lub więcej
Brak chmur poniżej 1500 m i brak chmur cumulonimbus

TAF: LJCE 301700Z 3018/3103 VRB02KT CAVOK

Obserwacja i prognoza pogody dla ponad 4000 lotnisk (raport METAR i TAF).

Dostępne stacje oznaczono żółtymi i czerwonymi punktami na mapie.

Najedź kursorem aby zobaczyć nazwę stacji.

Kliknij aby zobaczyć obserwacje i prognozy pogody.

Aby zmienić mapę: kliknij na zielony przycisk z czarnym krzyżykiem, aby powiększyć; na zielony przycisk z myślnikiem, aby pomniejszyć; na zielone strzałki, aby przejść do map sąsiednich.


METAR-TAF: